Airfield :
LOGIN :

Register | Disclaimer

   EN    FR    IT 

 










Legend :    VFR   Marginal VFR   IFR   Intensive IFR   Very Intensive IFR
Visi :
Ceiling :
>= 8 km
>= 3000ft
5 to 8 km
1000 to 3000 ft
1500m to 5 km
500 to 1000 ft
800 to 1500m
200 to 500 ft
< 800m
< 200 ft
Symbols :   Thunderstorms  Fog  Heavy snow  Heavy precipitations  Wind > 20 kt
SIGMETs :     Misc.  Thunderstorms  Icing  Turbulence  Mountain Waves  Volcanic Ashes







- Airport Elevation : 794 ft


LKCV - Čáslav Air Base

CURRENT METAR :
  • 211600Z 33009KT 9999 SCT043 01/M03 Q1014 NOSIG RMK BLU+ BLU

EXPIRED METARs :
  • 211500Z 33002KT 9999 FEW020 BKN070 02/M02 Q1013 NOSIG RMK BLU BLU
  • 211400Z 28006KT 9999 FEW010 SCT050 BKN120 01/M01 Q1012 NOSIG

TAF TAF LKCV
Valid from the 21 at 12:00 until the 22 at 12:00 UTC


211100Z 2112/2212 31008KT 8000 BKN035
PROB30
TEMPO 2116/2120 4000 SN SCT006 OVC010
TEMPO 2200/2206 VRB02KT 3000 BR NSC
BECMG 2208/2210 15008KT
No reported NOTAMs for that airfield.



MET'MAP, your aeronautical weather chart ! - Copyright ORBIFLY December 2007 - Disclaimer

ORBIFLY MET'MAP TEAM :

Programming & Development : Alexandra Zaïnal
Concept & Development : Baudouin d'Aumeries
Co-Development & Prog : Marc-Olivier Méhu
Technical & hardware support : Manuel Goepfert

Contact : metmap@orbifly.com




SOURCES & CREDITS :

   NOAA